sensor_id;sensor_type;location;lat;lon;timestamp;pressure;altitude;pressure_sealevel;temperature;humidity
70781;BME280;59514;48.810;2.134;2023-04-02T00:07:41;99993.25;;;9.02;89.15
70781;BME280;59514;48.810;2.134;2023-04-02T00:13:06;99991.59;;;9.01;88.17
70781;BME280;59514;48.810;2.134;2023-04-02T00:15:43;100003.50;;;9.05;88.13
70781;BME280;59514;48.810;2.134;2023-04-02T00:18:14;100006.25;;;8.99;87.98
70781;BME280;59514;48.810;2.134;2023-04-02T00:20:42;100007.66;;;9.01;88.26
70781;BME280;59514;48.810;2.134;2023-04-02T00:23:11;100006.94;;;9.12;87.95
70781;BME280;59514;48.810;2.134;2023-04-02T00:25:37;100011.53;;;9.05;87.69
70781;BME280;59514;48.810;2.134;2023-04-02T00:28:19;100012.56;;;9.04;87.74
70781;BME280;59514;48.810;2.134;2023-04-02T00:30:46;100014.38;;;9.10;87.94
70781;BME280;59514;48.810;2.134;2023-04-02T00:33:18;100013.38;;;9.05;87.62
70781;BME280;59514;48.810;2.134;2023-04-02T00:35:44;100014.06;;;9.00;87.78
70781;BME280;59514;48.810;2.134;2023-04-02T00:38:18;100010.94;;;9.03;87.34
70781;BME280;59514;48.810;2.134;2023-04-02T00:40:44;100009.84;;;8.93;87.59
70781;BME280;59514;48.810;2.134;2023-04-02T00:43:12;100018.13;;;9.03;87.99
70781;BME280;59514;48.810;2.134;2023-04-02T00:45:42;100023.00;;;8.94;88.22
70781;BME280;59514;48.810;2.134;2023-04-02T00:48:39;100012.78;;;9.03;88.00
70781;BME280;59514;48.810;2.134;2023-04-02T00:51:12;100022.53;;;8.97;88.62
70781;BME280;59514;48.810;2.134;2023-04-02T00:53:38;100026.16;;;9.03;88.60
70781;BME280;59514;48.810;2.134;2023-04-02T00:56:13;100022.94;;;9.01;88.59
70781;BME280;59514;48.810;2.134;2023-04-02T00:58:41;100034.88;;;8.98;88.93
70781;BME280;59514;48.810;2.134;2023-04-02T01:01:18;100036.75;;;8.98;88.30
70781;BME280;59514;48.810;2.134;2023-04-02T01:03:58;100044.13;;;9.02;88.28
70781;BME280;59514;48.810;2.134;2023-04-02T01:06:29;100034.44;;;9.01;88.51
70781;BME280;59514;48.810;2.134;2023-04-02T01:09:28;100047.09;;;8.94;89.36
70781;BME280;59514;48.810;2.134;2023-04-02T01:14:55;100040.06;;;8.93;89.93
70781;BME280;59514;48.810;2.134;2023-04-02T01:29:29;100052.28;;;8.89;89.56
70781;BME280;59514;48.810;2.134;2023-04-02T01:31:59;100050.19;;;8.91;89.63
70781;BME280;59514;48.810;2.134;2023-04-02T01:34:26;100059.69;;;8.87;89.85
70781;BME280;59514;48.810;2.134;2023-04-02T01:42:09;100058.69;;;8.88;89.70
70781;BME280;59514;48.810;2.134;2023-04-02T01:44:41;100064.47;;;8.85;90.32
70781;BME280;59514;48.810;2.134;2023-04-02T01:47:13;100061.88;;;8.79;91.00
70781;BME280;59514;48.810;2.134;2023-04-02T01:49:41;100062.25;;;8.82;91.18
70781;BME280;59514;48.810;2.134;2023-04-02T01:52:07;100060.31;;;8.89;90.88
70781;BME280;59514;48.810;2.134;2023-04-02T01:54:33;100068.34;;;8.89;91.19
70781;BME280;59514;48.810;2.134;2023-04-02T01:57:02;100065.94;;;8.81;92.57
70781;BME280;59514;48.810;2.134;2023-04-02T01:59:29;100059.31;;;8.65;92.80
70781;BME280;59514;48.810;2.134;2023-04-02T02:02:01;100063.53;;;8.73;92.92
70781;BME280;59514;48.810;2.134;2023-04-02T02:04:27;100064.75;;;8.77;92.64
70781;BME280;59514;48.810;2.134;2023-04-02T02:06:55;100069.34;;;8.70;92.36
70781;BME280;59514;48.810;2.134;2023-04-02T02:09:25;100073.44;;;8.73;91.78
70781;BME280;59514;48.810;2.134;2023-04-02T02:11:51;100065.19;;;8.74;91.47
70781;BME280;59514;48.810;2.134;2023-04-02T02:14:25;100072.94;;;8.82;90.96
70781;BME280;59514;48.810;2.134;2023-04-02T02:16:53;100070.28;;;8.82;91.19
70781;BME280;59514;48.810;2.134;2023-04-02T02:21:54;100079.56;;;8.80;90.96
70781;BME280;59514;48.810;2.134;2023-04-02T02:24:22;100086.16;;;8.77;91.27
70781;BME280;59514;48.810;2.134;2023-04-02T02:26:53;100085.78;;;8.74;91.23
70781;BME280;59514;48.810;2.134;2023-04-02T02:29:25;100096.72;;;8.72;91.67
70781;BME280;59514;48.810;2.134;2023-04-02T02:31:53;100095.66;;;8.73;92.02
70781;BME280;59514;48.810;2.134;2023-04-02T02:34:24;100093.44;;;8.70;92.54
70781;BME280;59514;48.810;2.134;2023-04-02T02:36:55;100099.03;;;8.68;92.44
70781;BME280;59514;48.810;2.134;2023-04-02T02:42:41;100101.25;;;8.72;91.16
70781;BME280;59514;48.810;2.134;2023-04-02T02:44:43;100111.94;;;8.72;90.71
70781;BME280;59514;48.810;2.134;2023-04-02T02:47:14;100101.88;;;8.67;91.21
70781;BME280;59514;48.810;2.134;2023-04-02T02:49:44;100113.69;;;8.59;92.17
70781;BME280;59514;48.810;2.134;2023-04-02T02:52:16;100111.88;;;8.53;94.11
70781;BME280;59514;48.810;2.134;2023-04-02T02:54:46;100123.41;;;8.54;93.88
70781;BME280;59514;48.810;2.134;2023-04-02T02:57:18;100121.84;;;8.46;94.49
70781;BME280;59514;48.810;2.134;2023-04-02T02:59:45;100128.81;;;8.47;94.96
70781;BME280;59514;48.810;2.134;2023-04-02T03:02:10;100127.59;;;8.43;95.23
70781;BME280;59514;48.810;2.134;2023-04-02T03:04:37;100122.47;;;8.42;95.24
70781;BME280;59514;48.810;2.134;2023-04-02T03:07:03;100128.44;;;8.44;95.85
70781;BME280;59514;48.810;2.134;2023-04-02T03:12:22;100136.47;;;8.44;96.50
70781;BME280;59514;48.810;2.134;2023-04-02T03:17:33;100137.09;;;8.39;95.50
70781;BME280;59514;48.810;2.134;2023-04-02T03:22:36;100146.22;;;8.32;96.38
70781;BME280;59514;48.810;2.134;2023-04-02T03:27:52;100142.94;;;8.30;97.13
70781;BME280;59514;48.810;2.134;2023-04-02T03:33:32;100150.94;;;8.23;99.52
70781;BME280;59514;48.810;2.134;2023-04-02T03:36:19;100156.75;;;8.20;100.00
70781;BME280;59514;48.810;2.134;2023-04-02T03:38:53;100162.97;;;8.08;100.00
70781;BME280;59514;48.810;2.134;2023-04-02T03:44:11;100167.31;;;8.09;100.00
70781;BME280;59514;48.810;2.134;2023-04-02T03:46:43;100169.38;;;8.07;100.00
70781;BME280;59514;48.810;2.134;2023-04-02T03:49:15;100173.06;;;8.06;100.00
70781;BME280;59514;48.810;2.134;2023-04-02T03:51:52;100183.34;;;8.09;100.00
70781;BME280;59514;48.810;2.134;2023-04-02T03:54:20;100175.97;;;8.04;100.00
70781;BME280;59514;48.810;2.134;2023-04-02T03:56:46;100188.69;;;8.09;100.00
70781;BME280;59514;48.810;2.134;2023-04-02T03:59:25;100185.16;;;8.15;100.00
70781;BME280;59514;48.810;2.134;2023-04-02T04:01:57;100185.78;;;8.17;100.00
70781;BME280;59514;48.810;2.134;2023-04-02T04:04:27;100200.59;;;8.13;100.00
70781;BME280;59514;48.810;2.134;2023-04-02T04:06:56;100196.88;;;8.14;100.00
70781;BME280;59514;48.810;2.134;2023-04-02T04:09:27;100204.53;;;8.04;100.00
70781;BME280;59514;48.810;2.134;2023-04-02T04:12:09;100194.25;;;8.07;100.00
70781;BME280;59514;48.810;2.134;2023-04-02T04:14:42;100202.28;;;8.07;100.00
70781;BME280;59514;48.810;2.134;2023-04-02T04:17:41;100205.75;;;8.08;100.00
70781;BME280;59514;48.810;2.134;2023-04-02T04:20:19;100208.25;;;8.09;100.00
70781;BME280;59514;48.810;2.134;2023-04-02T04:22:47;100213.00;;;7.94;100.00
70781;BME280;59514;48.810;2.134;2023-04-02T04:25:28;100214.22;;;7.98;100.00
70781;BME280;59514;48.810;2.134;2023-04-02T04:30:57;100221.03;;;7.88;100.00
70781;BME280;59514;48.810;2.134;2023-04-02T04:33:29;100215.53;;;7.82;100.00
70781;BME280;59514;48.810;2.134;2023-04-02T04:35:59;100222.69;;;7.89;100.00
70781;BME280;59514;48.810;2.134;2023-04-02T04:38:36;100222.09;;;7.87;100.00
70781;BME280;59514;48.810;2.134;2023-04-02T04:41:12;100230.50;;;7.83;100.00
70781;BME280;59514;48.810;2.134;2023-04-02T04:43:47;100228.88;;;7.89;100.00
70781;BME280;59514;48.810;2.134;2023-04-02T04:46:36;100239.75;;;7.88;100.00
70781;BME280;59514;48.810;2.134;2023-04-02T04:49:19;100238.53;;;7.90;100.00
70781;BME280;59514;48.810;2.134;2023-04-02T04:51:50;100245.53;;;7.84;100.00
70781;BME280;59514;48.810;2.134;2023-04-02T04:54:17;100242.44;;;7.88;100.00
70781;BME280;59514;48.810;2.134;2023-04-02T04:56:47;100250.88;;;7.84;99.86
70781;BME280;59514;48.810;2.134;2023-04-02T05:04:23;100260.34;;;7.80;98.74
70781;BME280;59514;48.810;2.134;2023-04-02T05:12:31;100275.56;;;7.80;99.58
70781;BME280;59514;48.810;2.134;2023-04-02T05:17:35;100278.44;;;7.78;100.00
70781;BME280;59514;48.810;2.134;2023-04-02T05:23:17;100271.22;;;7.85;98.53
70781;BME280;59514;48.810;2.134;2023-04-02T05:25:55;100273.72;;;7.80;98.63
70781;BME280;59514;48.810;2.134;2023-04-02T05:28:33;100288.91;;;7.80;98.98
70781;BME280;59514;48.810;2.134;2023-04-02T05:31:24;100287.06;;;7.74;99.03
70781;BME280;59514;48.810;2.134;2023-04-02T05:33:52;100289.53;;;7.75;98.94
70781;BME280;59514;48.810;2.134;2023-04-02T05:36:22;100291.22;;;7.63;99.26
70781;BME280;59514;48.810;2.134;2023-04-02T05:38:49;100296.34;;;7.65;99.40
70781;BME280;59514;48.810;2.134;2023-04-02T05:41:31;100304.78;;;7.68;99.04
70781;BME280;59514;48.810;2.134;2023-04-02T05:46:56;100308.50;;;7.67;99.62
70781;BME280;59514;48.810;2.134;2023-04-02T05:51:55;100313.22;;;7.65;98.52
70781;BME280;59514;48.810;2.134;2023-04-02T05:54:29;100327.81;;;7.69;98.63
70781;BME280;59514;48.810;2.134;2023-04-02T05:57:01;100325.13;;;7.69;98.60
70781;BME280;59514;48.810;2.134;2023-04-02T05:59:30;100331.91;;;7.65;99.58
70781;BME280;59514;48.810;2.134;2023-04-02T06:02:03;100339.28;;;7.70;99.36
70781;BME280;59514;48.810;2.134;2023-04-02T06:07:17;100350.81;;;7.70;99.34
70781;BME280;59514;48.810;2.134;2023-04-02T06:09:48;100355.34;;;7.63;99.62
70781;BME280;59514;48.810;2.134;2023-04-02T06:15:00;100357.81;;;7.65;100.00
70781;BME280;59514;48.810;2.134;2023-04-02T06:17:26;100362.94;;;7.66;100.00
70781;BME280;59514;48.810;2.134;2023-04-02T06:19:53;100361.72;;;7.62;100.00
70781;BME280;59514;48.810;2.134;2023-04-02T06:22:35;100372.63;;;7.67;100.00
70781;BME280;59514;48.810;2.134;2023-04-02T06:25:05;100371.56;;;7.68;100.00
70781;BME280;59514;48.810;2.134;2023-04-02T06:27:34;100367.25;;;7.61;100.00
70781;BME280;59514;48.810;2.134;2023-04-02T06:30:02;100384.50;;;7.58;100.00
70781;BME280;59514;48.810;2.134;2023-04-02T06:32:29;100382.47;;;7.47;100.00
70781;BME280;59514;48.810;2.134;2023-04-02T06:34:55;100381.22;;;7.43;100.00
70781;BME280;59514;48.810;2.134;2023-04-02T06:37:32;100385.13;;;7.41;100.00
70781;BME280;59514;48.810;2.134;2023-04-02T06:39:59;100386.13;;;7.40;100.00
70781;BME280;59514;48.810;2.134;2023-04-02T06:42:27;100388.63;;;7.41;100.00
70781;BME280;59514;48.810;2.134;2023-04-02T06:44:55;100393.34;;;7.39;100.00
70781;BME280;59514;48.810;2.134;2023-04-02T06:52:52;100405.06;;;7.45;100.00
70781;BME280;59514;48.810;2.134;2023-04-02T06:57:44;100408.75;;;7.37;100.00
70781;BME280;59514;48.810;2.134;2023-04-02T07:00:23;100413.91;;;7.45;100.00
70781;BME280;59514;48.810;2.134;2023-04-02T07:02:51;100402.19;;;7.46;100.00
70781;BME280;59514;48.810;2.134;2023-04-02T07:05:17;100424.78;;;7.50;100.00
70781;BME280;59514;48.810;2.134;2023-04-02T07:07:42;100426.63;;;7.50;100.00
70781;BME280;59514;48.810;2.134;2023-04-02T07:10:08;100432.38;;;7.47;100.00
70781;BME280;59514;48.810;2.134;2023-04-02T07:12:34;100437.53;;;7.48;100.00
70781;BME280;59514;48.810;2.134;2023-04-02T07:14:59;100435.88;;;7.54;100.00
70781;BME280;59514;48.810;2.134;2023-04-02T07:17:25;100441.66;;;7.57;100.00
70781;BME280;59514;48.810;2.134;2023-04-02T07:19:50;100451.72;;;7.55;100.00
70781;BME280;59514;48.810;2.134;2023-04-02T07:22:17;100456.03;;;7.56;100.00
70781;BME280;59514;48.810;2.134;2023-04-02T07:24:43;100457.69;;;7.57;100.00
70781;BME280;59514;48.810;2.134;2023-04-02T07:27:10;100458.94;;;7.61;100.00
70781;BME280;59514;48.810;2.134;2023-04-02T07:29:36;100462.00;;;7.58;100.00
70781;BME280;59514;48.810;2.134;2023-04-02T07:32:07;100463.84;;;7.64;100.00
70781;BME280;59514;48.810;2.134;2023-04-02T07:34:33;100462.03;;;7.71;100.00
70781;BME280;59514;48.810;2.134;2023-04-02T07:36:58;100479.50;;;7.67;100.00
70781;BME280;59514;48.810;2.134;2023-04-02T07:39:24;100478.47;;;7.68;100.00
70781;BME280;59514;48.810;2.134;2023-04-02T07:41:57;100471.03;;;7.64;100.00
70781;BME280;59514;48.810;2.134;2023-04-02T07:44:23;100473.31;;;7.60;100.00
70781;BME280;59514;48.810;2.134;2023-04-02T07:46:49;100482.75;;;7.56;100.00
70781;BME280;59514;48.810;2.134;2023-04-02T07:49:14;100483.97;;;7.54;100.00
70781;BME280;59514;48.810;2.134;2023-04-02T07:51:40;100490.56;;;7.51;100.00
70781;BME280;59514;48.810;2.134;2023-04-02T07:54:06;100490.56;;;7.51;100.00
70781;BME280;59514;48.810;2.134;2023-04-02T07:56:35;100497.31;;;7.54;100.00
70781;BME280;59514;48.810;2.134;2023-04-02T07:59:01;100499.00;;;7.55;100.00
70781;BME280;59514;48.810;2.134;2023-04-02T08:01:27;100494.88;;;7.59;100.00
70781;BME280;59514;48.810;2.134;2023-04-02T08:03:55;100503.72;;;7.59;100.00
70781;BME280;59514;48.810;2.134;2023-04-02T08:06:22;100503.31;;;7.62;100.00
70781;BME280;59514;48.810;2.134;2023-04-02T08:08:48;100509.09;;;7.72;100.00
70781;BME280;59514;48.810;2.134;2023-04-02T08:11:14;100516.06;;;7.67;100.00
70781;BME280;59514;48.810;2.134;2023-04-02T08:13:40;100514.63;;;7.64;100.00
70781;BME280;59514;48.810;2.134;2023-04-02T08:16:06;100512.81;;;7.71;100.00
70781;BME280;59514;48.810;2.134;2023-04-02T08:18:31;100523.28;;;7.79;100.00
70781;BME280;59514;48.810;2.134;2023-04-02T08:20:58;100514.88;;;7.82;100.00
70781;BME280;59514;48.810;2.134;2023-04-02T08:23:24;100528.84;;;7.84;100.00
70781;BME280;59514;48.810;2.134;2023-04-02T08:25:49;100521.41;;;7.73;100.00
70781;BME280;59514;48.810;2.134;2023-04-02T08:28:15;100532.94;;;7.74;100.00
70781;BME280;59514;48.810;2.134;2023-04-02T08:30:41;100538.91;;;7.69;100.00
70781;BME280;59514;48.810;2.134;2023-04-02T08:33:06;100538.06;;;7.69;100.00
70781;BME280;59514;48.810;2.134;2023-04-02T08:35:32;100541.16;;;7.72;100.00
70781;BME280;59514;48.810;2.134;2023-04-02T08:37:58;100549.00;;;7.80;100.00
70781;BME280;59514;48.810;2.134;2023-04-02T08:45:41;100562.13;;;7.82;100.00
70781;BME280;59514;48.810;2.134;2023-04-02T08:48:12;100563.56;;;7.78;100.00
70781;BME280;59514;48.810;2.134;2023-04-02T08:50:40;100563.97;;;7.81;100.00
70781;BME280;59514;48.810;2.134;2023-04-02T08:53:19;100570.59;;;7.92;100.00
70781;BME280;59514;48.810;2.134;2023-04-02T09:00:52;100579.63;;;7.84;100.00
70781;BME280;59514;48.810;2.134;2023-04-02T09:03:21;100573.66;;;7.82;100.00
70781;BME280;59514;48.810;2.134;2023-04-02T09:05:52;100577.78;;;7.78;100.00
70781;BME280;59514;48.810;2.134;2023-04-02T09:08:23;100580.25;;;7.87;100.00
70781;BME280;59514;48.810;2.134;2023-04-02T09:10:54;100576.53;;;7.88;100.00
70781;BME280;59514;48.810;2.134;2023-04-02T09:13:25;100577.81;;;8.05;100.00
70781;BME280;59514;48.810;2.134;2023-04-02T09:16:14;100588.53;;;8.18;100.00
70781;BME280;59514;48.810;2.134;2023-04-02T09:18:42;100591.81;;;8.20;100.00
70781;BME280;59514;48.810;2.134;2023-04-02T09:23:42;100600.47;;;8.22;100.00
70781;BME280;59514;48.810;2.134;2023-04-02T09:26:23;100596.41;;;8.32;99.77
70781;BME280;59514;48.810;2.134;2023-04-02T09:28:54;100604.63;;;8.31;100.00
70781;BME280;59514;48.810;2.134;2023-04-02T09:31:33;100612.88;;;8.36;100.00
70781;BME280;59514;48.810;2.134;2023-04-02T09:34:00;100614.72;;;8.42;99.77
70781;BME280;59514;48.810;2.134;2023-04-02T09:39:00;100616.81;;;8.53;98.45
70781;BME280;59514;48.810;2.134;2023-04-02T09:41:31;100617.41;;;8.48;98.72
70781;BME280;59514;48.810;2.134;2023-04-02T09:44:18;100621.91;;;8.61;99.56
70781;BME280;59514;48.810;2.134;2023-04-02T09:46:50;100624.41;;;8.56;99.88
70781;BME280;59514;48.810;2.134;2023-04-02T09:49:16;100637.16;;;8.47;98.72
70781;BME280;59514;48.810;2.134;2023-04-02T09:51:42;100632.84;;;8.53;99.35
70781;BME280;59514;48.810;2.134;2023-04-02T09:54:15;100643.75;;;8.58;99.27
70781;BME280;59514;48.810;2.134;2023-04-02T09:57:01;100643.75;;;8.78;98.47
70781;BME280;59514;48.810;2.134;2023-04-02T09:59:27;100640.44;;;8.95;95.86
70781;BME280;59514;48.810;2.134;2023-04-02T10:04:37;100643.13;;;8.95;91.58
70781;BME280;59514;48.810;2.134;2023-04-02T10:13:00;100644.09;;;9.33;87.32
70781;BME280;59514;48.810;2.134;2023-04-02T10:15:32;100653.19;;;9.19;88.05
70781;BME280;59514;48.810;2.134;2023-04-02T10:18:13;100660.81;;;9.09;87.94
70781;BME280;59514;48.810;2.134;2023-04-02T10:20:42;100661.06;;;8.88;89.75
70781;BME280;59514;48.810;2.134;2023-04-02T10:23:15;100656.94;;;8.86;88.47
70781;BME280;59514;48.810;2.134;2023-04-02T10:25:43;100667.84;;;8.84;89.42
70781;BME280;59514;48.810;2.134;2023-04-02T10:29:11;100683.28;;;8.76;90.64
70781;BME280;59514;48.810;2.134;2023-04-02T10:31:15;100692.56;;;8.80;90.68
70781;BME280;59514;48.810;2.134;2023-04-02T10:33:49;100686.59;;;8.64;90.47
70781;BME280;59514;48.810;2.134;2023-04-02T10:38:43;100687.00;;;8.68;89.93
70781;BME280;59514;48.810;2.134;2023-04-02T10:41:30;100694.00;;;8.76;90.77
70781;BME280;59514;48.810;2.134;2023-04-02T10:46:39;100695.63;;;8.83;88.73
70781;BME280;59514;48.810;2.134;2023-04-02T10:51:54;100703.50;;;8.85;88.27
70781;BME280;59514;48.810;2.134;2023-04-02T10:54:50;100710.91;;;8.83;87.53
70781;BME280;59514;48.810;2.134;2023-04-02T11:02:51;100722.00;;;8.99;88.37
70781;BME280;59514;48.810;2.134;2023-04-02T11:05:24;100720.38;;;8.98;86.85
70781;BME280;59514;48.810;2.134;2023-04-02T11:10:22;100732.13;;;8.91;88.03
70781;BME280;59514;48.810;2.134;2023-04-02T11:15:47;100728.19;;;8.80;87.56
70781;BME280;59514;48.810;2.134;2023-04-02T11:18:28;100719.97;;;8.88;88.16
70781;BME280;59514;48.810;2.134;2023-04-02T11:20:59;100728.63;;;8.97;86.62
70781;BME280;59514;48.810;2.134;2023-04-02T11:23:38;100726.75;;;9.04;87.53
70781;BME280;59514;48.810;2.134;2023-04-02T11:26:33;100727.38;;;9.12;86.49
70781;BME280;59514;48.810;2.134;2023-04-02T11:31:30;100736.44;;;9.05;85.59
70781;BME280;59514;48.810;2.134;2023-04-02T11:33:56;100742.41;;;9.00;86.00
70781;BME280;59514;48.810;2.134;2023-04-02T11:44:43;100756.22;;;9.10;86.27
70781;BME280;59514;48.810;2.134;2023-04-02T11:47:28;100750.44;;;9.00;86.36
70781;BME280;59514;48.810;2.134;2023-04-02T11:52:26;100757.22;;;8.90;87.26
70781;BME280;59514;48.810;2.134;2023-04-02T11:55:21;100757.84;;;8.92;87.57
70781;BME280;59514;48.810;2.134;2023-04-02T12:06:24;100778.06;;;8.94;86.95
70781;BME280;59514;48.810;2.134;2023-04-02T12:11:39;100782.38;;;8.89;86.79
70781;BME280;59514;48.810;2.134;2023-04-02T12:14:28;100787.09;;;8.87;86.52
70781;BME280;59514;48.810;2.134;2023-04-02T12:16:55;100792.25;;;8.88;86.65
70781;BME280;59514;48.810;2.134;2023-04-02T12:19:22;100790.81;;;8.92;86.39
70781;BME280;59514;48.810;2.134;2023-04-02T12:21:50;100801.13;;;8.89;87.48
70781;BME280;59514;48.810;2.134;2023-04-02T12:24:20;100801.91;;;8.89;87.25
70781;BME280;59514;48.810;2.134;2023-04-02T12:26:46;100811.03;;;8.95;86.94
70781;BME280;59514;48.810;2.134;2023-04-02T12:29:23;100801.09;;;8.95;87.00
70781;BME280;59514;48.810;2.134;2023-04-02T12:31:49;100808.94;;;8.90;86.55
70781;BME280;59514;48.810;2.134;2023-04-02T12:34:17;100809.94;;;8.89;86.55
70781;BME280;59514;48.810;2.134;2023-04-02T12:37:00;100806.06;;;8.92;86.07
70781;BME280;59514;48.810;2.134;2023-04-02T12:39:31;100806.06;;;8.98;86.26
70781;BME280;59514;48.810;2.134;2023-04-02T12:41:57;100797.81;;;9.00;85.11
70781;BME280;59514;48.810;2.134;2023-04-02T12:44:27;100800.09;;;9.03;85.19
70781;BME280;59514;48.810;2.134;2023-04-02T12:46:54;100802.75;;;9.03;85.33
70781;BME280;59514;48.810;2.134;2023-04-02T12:49:33;100804.84;;;9.07;85.11
70781;BME280;59514;48.810;2.134;2023-04-02T12:52:12;100812.66;;;9.09;85.41
70781;BME280;59514;48.810;2.134;2023-04-02T12:55:01;100812.25;;;8.99;84.95
70781;BME280;59514;48.810;2.134;2023-04-02T13:00:25;100819.66;;;9.03;84.31
70781;BME280;59514;48.810;2.134;2023-04-02T13:08:00;100832.66;;;9.13;83.23
70781;BME280;59514;48.810;2.134;2023-04-02T13:10:26;100826.25;;;9.07;84.13
70781;BME280;59514;48.810;2.134;2023-04-02T13:12:57;100831.63;;;9.14;84.17
70781;BME280;59514;48.810;2.134;2023-04-02T13:15:27;100834.53;;;9.12;84.14
70781;BME280;59514;48.810;2.134;2023-04-02T13:18:17;100828.31;;;8.92;84.84
70781;BME280;59514;48.810;2.134;2023-04-02T13:21:00;100829.13;;;8.86;85.07
70781;BME280;59514;48.810;2.134;2023-04-02T13:25:57;100833.47;;;9.00;85.61
70781;BME280;59514;48.810;2.134;2023-04-02T13:28:23;100836.97;;;8.94;84.68
70781;BME280;59514;48.810;2.134;2023-04-02T13:30:48;100829.13;;;8.99;85.18
70781;BME280;59514;48.810;2.134;2023-04-02T13:33:14;100844.81;;;9.02;85.09
70781;BME280;59514;48.810;2.134;2023-04-02T13:35:41;100845.00;;;9.07;84.96
70781;BME280;59514;48.810;2.134;2023-04-02T13:38:07;100844.97;;;8.88;85.63
70781;BME280;59514;48.810;2.134;2023-04-02T13:40:33;100855.47;;;8.83;85.41
70781;BME280;59514;48.810;2.134;2023-04-02T13:43:00;100852.78;;;8.89;85.59
70781;BME280;59514;48.810;2.134;2023-04-02T13:45:30;100846.66;;;9.02;84.76
70781;BME280;59514;48.810;2.134;2023-04-02T13:47:56;100853.47;;;9.04;83.46
70781;BME280;59514;48.810;2.134;2023-04-02T13:50:26;100864.19;;;9.04;83.34
70781;BME280;59514;48.810;2.134;2023-04-02T13:52:53;100865.63;;;9.13;83.53
70781;BME280;59514;48.810;2.134;2023-04-02T13:55:22;100861.28;;;8.99;84.26
70781;BME280;59514;48.810;2.134;2023-04-02T13:57:49;100864.13;;;8.91;83.20
70781;BME280;59514;48.810;2.134;2023-04-02T14:00:15;100863.31;;;8.97;83.29
70781;BME280;59514;48.810;2.134;2023-04-02T14:02:45;100869.53;;;9.04;83.38
70781;BME280;59514;48.810;2.134;2023-04-02T14:05:31;100866.66;;;9.12;83.39
70781;BME280;59514;48.810;2.134;2023-04-02T14:11:01;100868.28;;;9.07;83.66
70781;BME280;59514;48.810;2.134;2023-04-02T14:13:44;100867.25;;;9.01;84.45
70781;BME280;59514;48.810;2.134;2023-04-02T14:31:56;100898.66;;;8.73;84.19
70781;BME280;59514;48.810;2.134;2023-04-02T14:34:41;100901.13;;;8.68;84.46
70781;BME280;59514;48.810;2.134;2023-04-02T14:39:37;100904.38;;;8.57;84.22
70781;BME280;59514;48.810;2.134;2023-04-02T14:42:18;100913.00;;;8.59;83.79
70781;BME280;59514;48.810;2.134;2023-04-02T14:44:50;100921.91;;;8.66;83.20
70781;BME280;59514;48.810;2.134;2023-04-02T14:47:24;100920.81;;;8.54;83.28
70781;BME280;59514;48.810;2.134;2023-04-02T14:50:01;100928.19;;;8.45;83.65
70781;BME280;59514;48.810;2.134;2023-04-02T14:52:30;100934.94;;;8.35;83.27
70781;BME280;59514;48.810;2.134;2023-04-02T14:55:13;100930.28;;;8.50;83.05
70781;BME280;59514;48.810;2.134;2023-04-02T14:57:46;100930.69;;;8.47;83.28
70781;BME280;59514;48.810;2.134;2023-04-02T15:08:27;100924.09;;;8.49;83.00
70781;BME280;59514;48.810;2.134;2023-04-02T15:11:01;100929.00;;;8.46;82.35
70781;BME280;59514;48.810;2.134;2023-04-02T15:14:02;100925.34;;;8.47;82.53
70781;BME280;59514;48.810;2.134;2023-04-02T15:16:29;100928.53;;;8.36;83.29
70781;BME280;59514;48.810;2.134;2023-04-02T15:19:00;100922.41;;;8.42;83.20
70781;BME280;59514;48.810;2.134;2023-04-02T15:22:06;100924.22;;;8.35;83.64
70781;BME280;59514;48.810;2.134;2023-04-02T15:30:34;100925.66;;;8.31;84.49
70781;BME280;59514;48.810;2.134;2023-04-02T15:41:39;100943.03;;;8.20;83.62
70781;BME280;59514;48.810;2.134;2023-04-02T15:44:15;100933.69;;;8.10;84.48
70781;BME280;59514;48.810;2.134;2023-04-02T15:55:37;100957.78;;;7.89;87.00
70781;BME280;59514;48.810;2.134;2023-04-02T16:09:28;100968.84;;;7.85;86.44
70781;BME280;59514;48.810;2.134;2023-04-02T16:12:11;100968.69;;;7.87;86.44
70781;BME280;59514;48.810;2.134;2023-04-02T16:14:39;100973.97;;;7.80;86.92
70781;BME280;59514;48.810;2.134;2023-04-02T16:17:11;100977.84;;;7.78;87.78
70781;BME280;59514;48.810;2.134;2023-04-02T16:19:44;100976.44;;;7.82;87.28
70781;BME280;59514;48.810;2.134;2023-04-02T16:22:23;100977.28;;;7.82;87.79
70781;BME280;59514;48.810;2.134;2023-04-02T16:24:59;100987.69;;;7.77;88.61
70781;BME280;59514;48.810;2.134;2023-04-02T16:27:34;100983.16;;;7.71;88.45
70781;BME280;59514;48.810;2.134;2023-04-02T16:33:06;101001.66;;;7.73;88.66
70781;BME280;59514;48.810;2.134;2023-04-02T16:36:00;100999.44;;;7.55;89.70
70781;BME280;59514;48.810;2.134;2023-04-02T16:38:54;101007.94;;;7.44;90.90
70781;BME280;59514;48.810;2.134;2023-04-02T16:49:46;101025.44;;;7.47;90.88
70781;BME280;59514;48.810;2.134;2023-04-02T16:52:31;101024.78;;;7.45;91.63
70781;BME280;59514;48.810;2.134;2023-04-02T16:55:09;101027.94;;;7.34;92.21
70781;BME280;59514;48.810;2.134;2023-04-02T17:00:21;101043.72;;;7.29;92.53
70781;BME280;59514;48.810;2.134;2023-04-02T17:02:59;101041.03;;;7.29;92.92
70781;BME280;59514;48.810;2.134;2023-04-02T17:08:28;101042.41;;;7.39;93.08
70781;BME280;59514;48.810;2.134;2023-04-02T17:10:58;101048.00;;;7.44;92.24
70781;BME280;59514;48.810;2.134;2023-04-02T17:13:40;101050.41;;;7.39;92.31
70781;BME280;59514;48.810;2.134;2023-04-02T17:16:31;101049.31;;;7.34;92.07
70781;BME280;59514;48.810;2.134;2023-04-02T17:19:00;101055.88;;;7.31;92.20
70781;BME280;59514;48.810;2.134;2023-04-02T17:21:27;101056.81;;;7.24;92.51
70781;BME280;59514;48.810;2.134;2023-04-02T17:23:54;101070.31;;;7.22;92.59
70781;BME280;59514;48.810;2.134;2023-04-02T17:26:24;101068.28;;;7.24;92.84
70781;BME280;59514;48.810;2.134;2023-04-02T17:28:51;101074.66;;;7.23;92.11
70781;BME280;59514;48.810;2.134;2023-04-02T17:31:22;101065.81;;;7.23;92.56